Main page
METAR-TAF:

METAR-TAF

Airports :

RNAS Yeovilton (HMS Heron)

Yeovilton, England

latitude: 51-00N, longitude: 002-38W, elevation: 23 m

Current weather observation

The report was made 34 minutes ago, at 11:50 UTC
Wind 3 kt from the Northwest
Temperature 28°C
Humidity 62%
Pressure 1014 hPa
Visibility 10 km or more
no clouds below 1500 m and no cumulonimbus

METAR: EGDY 111150Z 32003KT CAVOK 28/20 Q1014 NOSIG RMK BLU BLU

Time: 13:24 (12:24 UTC)

Forecast

The report was made 1 hour and 57 minutes ago, at 10:27 UTC
Forecast valid from 11 at 12 UTC to 11 at 21 UTC
Wind 5 kt from variable directions
Visibility 10 km or more
no clouds below 1500 m and no cumulonimbus
Probability 30% :
Temporary
from 11 at 14 UTC to 11 at 18 UTC
Visibility: 4000 m
Broken clouds at a height of 5000 ft, Cumulonimbus.
heavy rain showers

TAF: EGDY 111027Z 1112/1121 VRB05KT CAVOK PROB30 TEMPO 1114/1118 4000 +SHRA BKN050CB

Weather observations and forecasts of more than 4000 airports (METAR and TAF reports).

The available stations are represented by yellow and red dots on the map.

Hover mouse over dot to see the name of the station.

Then click to see weather observations and forecasts.

To change the map : click on the green buttons with a black cross to zoom in, on the green button with a dash to zoom out, or on the green arrows for adjacent maps.


METAR-TAF: